Time;durP1;ratioP1;P1;durP2;ratioP2;P2;SDS_P1;SDS_P2;PMS_P1;PMS_P2;Temp;Humidity;BMP_temperature;BMP_pressure;BME280_temperature;BME280_humidity;BME280_pressure;Samples;Min_cycle;Max_cycle;Signal;HPM_P1;HPM_P2
2022/02/11 00:08:03;;;;;;;6.07;3.58;;;5.80;99.90;;;;;;5082540;28;20093;-68
2022/02/11 00:10:28;;;;;;;7.03;3.90;;;5.80;99.90;;;;;;5091841;28;20344;-69
2022/02/11 00:12:54;;;;;;;6.22;3.88;;;5.80;99.90;;;;;;5085632;28;20501;-69
2022/02/11 00:15:42;;;;;;;5.35;3.45;;;5.80;99.90;;;;;;5073675;28;20044;-69
2022/02/11 00:18:09;;;;;;;6.55;3.75;;;5.90;99.90;;;;;;5083543;28;20047;-69
2022/02/11 00:20:36;;;;;;;7.35;4.10;;;5.90;99.90;;;;;;5086981;28;20402;-68
2022/02/11 00:23:03;;;;;;;4.82;3.58;;;5.80;99.90;;;;;;5090093;28;20068;-69
2022/02/11 00:25:29;;;;;;;5.50;3.60;;;5.80;99.90;;;;;;5091781;28;20020;-68
2022/02/11 00:30:48;;;;;;;6.05;3.70;;;5.90;99.90;;;;;;5087246;28;20060;-69
2022/02/11 00:36:04;;;;;;;3.88;3.40;;;5.80;99.90;;;;;;5086443;28;20059;-69
2022/02/11 01:02:49;;;;;;;6.03;3.60;;;5.80;99.90;;;;;;5079745;28;20505;-69
2022/02/11 01:05:15;;;;;;;4.22;3.28;;;5.90;99.90;;;;;;5084163;28;20040;-69
2022/02/11 01:07:40;;;;;;;4.97;3.45;;;5.90;99.90;;;;;;5081358;28;20035;-68
2022/02/11 01:10:06;;;;;;;4.45;3.50;;;5.90;99.90;;;;;;5085642;28;20035;-69
2022/02/11 01:12:32;;;;;;;5.85;3.42;;;5.90;99.90;;;;;;5088305;28;20048;-69
2022/02/11 01:14:58;;;;;;;8.45;4.00;;;5.90;99.90;;;;;;5086341;28;20054;-69
2022/02/11 01:20:01;;;;;;;6.15;3.40;;;5.90;99.90;;;;;;5084945;28;20135;-68
2022/02/11 01:30:28;;;;;;;5.25;3.22;;;5.90;99.90;;;;;;5078613;28;20501;-69
2022/02/11 01:38:14;;;;;;;6.07;3.33;;;5.90;99.90;;;;;;5080526;28;20091;-68
2022/02/11 01:46:23;;;;;;;6.68;3.85;;;5.90;99.90;;;;;;5083164;28;20384;-68
2022/02/11 01:57:04;;;;;;;4.85;3.50;;;5.80;99.90;;;;;;5081150;28;20615;-68
2022/02/11 02:26:05;;;;;;;6.93;4.32;;;5.80;99.90;;;;;;5090100;28;20024;-69
2022/02/11 02:39:21;;;;;;;7.32;4.00;;;5.60;99.90;;;;;;5082735;28;20452;-69
2022/02/11 02:50:13;;;;;;;7.32;4.60;;;5.40;99.90;;;;;;5085459;28;20085;-69
2022/02/11 02:58:17;;;;;;;9.02;4.95;;;5.20;99.90;;;;;;5082996;28;20510;-69
2022/02/11 04:25:48;;;;;;;2.40;2.13;;;4.10;99.90;;;;;;5087826;28;20030;-69
2022/02/11 04:54:58;;;;;;;1.52;1.42;;;3.80;99.90;;;;;;5077676;28;20039;-68
2022/02/11 05:00:14;;;;;;;1.50;1.40;;;3.80;99.90;;;;;;5086665;28;20475;-68
2022/02/11 05:02:45;;;;;;;1.70;1.60;;;3.80;99.90;;;;;;5090490;28;20165;-69
2022/02/11 05:05:11;;;;;;;1.35;1.25;;;3.80;99.90;;;;;;5076296;28;20387;-68
2022/02/11 05:07:37;;;;;;;1.45;1.33;;;3.80;99.90;;;;;;5078812;28;20032;-68
2022/02/11 05:10:04;;;;;;;2.08;1.50;;;3.80;99.90;;;;;;5087272;28;20495;-69
2022/02/11 05:12:29;;;;;;;1.42;1.33;;;3.80;99.90;;;;;;5078761;28;20044;-69
2022/02/11 05:14:55;;;;;;;1.50;1.40;;;3.80;99.90;;;;;;5064557;28;20064;-67
2022/02/11 05:17:20;;;;;;;1.52;1.42;;;3.80;99.90;;;;;;5080269;28;20056;-68
2022/02/11 05:19:46;;;;;;;1.60;1.50;;;3.80;99.90;;;;;;5168143;22;20075;-68
2022/02/11 05:22:12;;;;;;;2.05;1.45;;;3.80;99.90;;;;;;5104882;28;20024;-68
2022/02/11 05:24:37;;;;;;;1.90;1.80;;;3.80;99.90;;;;;;5100245;28;20070;-68
2022/02/11 05:27:03;;;;;;;2.50;1.95;;;3.80;99.90;;;;;;5102025;28;20098;-68
2022/02/11 05:29:28;;;;;;;1.92;1.83;;;3.80;99.90;;;;;;5091892;28;20596;-68
2022/02/11 05:31:54;;;;;;;1.73;1.63;;;3.80;99.90;;;;;;5110159;28;20028;-68
2022/02/11 05:34:20;;;;;;;1.85;1.75;;;3.80;99.90;;;;;;5110213;28;20020;-68
2022/02/11 05:36:45;;;;;;;1.65;1.55;;;3.80;99.90;;;;;;5110630;28;20055;-68
2022/02/11 05:39:11;;;;;;;1.70;1.60;;;3.80;99.90;;;;;;5109880;28;20026;-68
2022/02/11 05:41:36;;;;;;;1.70;1.60;;;3.80;99.90;;;;;;5109440;28;20024;-68
2022/02/11 05:44:02;;;;;;;1.65;1.55;;;3.70;99.90;;;;;;5105100;28;20149;-68
2022/02/11 05:46:29;;;;;;;1.63;1.52;;;3.70;99.90;;;;;;5107051;28;20042;-68
2022/02/11 05:48:55;;;;;;;1.83;1.73;;;3.70;99.90;;;;;;5105077;28;20132;-68
2022/02/11 05:51:20;;;;;;;1.95;1.85;;;3.60;99.90;;;;;;5104377;28;20043;-67
2022/02/11 05:53:46;;;;;;;2.10;1.90;;;3.50;99.90;;;;;;5091204;28;20023;-68
2022/02/11 05:56:11;;;;;;;1.92;1.83;;;3.40;99.90;;;;;;5109934;28;20176;-68
2022/02/11 05:58:38;;;;;;;2.50;1.77;;;3.40;99.90;;;;;;5108424;28;20041;-68
2022/02/11 06:01:07;;;;;;;3.15;2.17;;;3.40;99.90;;;;;;5092294;28;20028;-68
2022/02/11 06:03:33;;;;;;;2.72;1.85;;;3.40;99.90;;;;;;5109985;28;20051;-68
2022/02/11 06:05:59;;;;;;;3.60;2.30;;;3.30;99.90;;;;;;5109792;28;20123;-68
2022/02/11 06:08:25;;;;;;;4.15;2.90;;;3.30;99.90;;;;;;5101532;28;20543;-67
2022/02/11 06:10:50;;;;;;;2.67;2.47;;;3.30;99.90;;;;;;5098143;28;20038;-67
2022/02/11 06:13:16;;;;;;;4.20;3.30;;;3.20;99.90;;;;;;5106176;28;20042;-68
2022/02/11 06:15:44;;;;;;;3.55;2.85;;;3.20;99.90;;;;;;5109237;28;20054;-68
2022/02/11 06:18:09;;;;;;;5.13;3.67;;;3.20;99.90;;;;;;5091475;28;20028;-67
2022/02/11 06:20:35;;;;;;;3.20;2.90;;;3.20;99.90;;;;;;5105835;28;20706;-68
2022/02/11 06:23:01;;;;;;;4.45;3.38;;;3.20;99.90;;;;;;5090501;28;20027;-68
2022/02/11 06:25:27;;;;;;;6.05;4.32;;;3.10;99.90;;;;;;5099169;28;20032;-68
2022/02/11 06:27:52;;;;;;;4.43;4.00;;;3.20;99.90;;;;;;5089105;28;20081;-69
2022/02/11 06:30:18;;;;;;;3.40;3.10;;;3.10;99.90;;;;;;5092486;28;20360;-68
2022/02/11 06:32:43;;;;;;;3.08;2.42;;;3.10;99.90;;;;;;5111580;28;20043;-68
2022/02/11 06:35:13;;;;;;;3.65;2.40;;;3.10;99.90;;;;;;5110863;28;20471;-68
2022/02/11 06:37:45;;;;;;;2.60;2.40;;;3.10;99.90;;;;;;5092300;28;20015;-69
2022/02/11 06:40:13;;;;;;;3.42;2.47;;;3.00;99.90;;;;;;5111106;28;20020;-67
2022/02/11 06:42:39;;;;;;;4.45;3.30;;;3.00;99.90;;;;;;5111639;28;20506;-66
2022/02/11 06:45:06;;;;;;;4.80;2.90;;;3.00;99.90;;;;;;5111184;28;20038;-66
2022/02/11 06:47:32;;;;;;;3.28;2.97;;;3.00;99.90;;;;;;5109191;28;20035;-67
2022/02/11 06:49:57;;;;;;;4.50;2.47;;;3.10;99.90;;;;;;5105645;28;20040;-67
2022/02/11 06:52:23;;;;;;;3.83;3.08;;;3.10;99.90;;;;;;5090885;28;20020;-67
2022/02/11 06:54:48;;;;;;;6.82;4.60;;;3.00;99.90;;;;;;5106392;28;20833;-67
2022/02/11 06:57:14;;;;;;;6.88;3.67;;;3.00;99.90;;;;;;5103530;28;20078;-67
2022/02/11 06:59:40;;;;;;;4.25;3.55;;;3.00;99.90;;;;;;5108077;28;20027;-67
2022/02/11 07:02:12;;;;;;;4.38;3.90;;;3.00;99.90;;;;;;5090778;28;20085;-67
2022/02/11 07:04:38;;;;;;;6.43;3.85;;;2.90;99.90;;;;;;5087902;28;20057;-68
2022/02/11 07:07:03;;;;;;;6.47;4.10;;;2.90;99.90;;;;;;5104832;28;20035;-67
2022/02/11 07:09:29;;;;;;;5.35;4.10;;;2.90;99.90;;;;;;5108506;28;20124;-67
2022/02/11 07:11:54;;;;;;;4.88;4.13;;;2.90;99.90;;;;;;5109372;28;20046;-67
2022/02/11 07:14:20;;;;;;;6.78;4.25;;;2.90;99.90;;;;;;5108047;28;20074;-67
2022/02/11 07:16:47;;;;;;;5.25;3.53;;;2.80;99.90;;;;;;5104698;28;20072;-67
2022/02/11 07:19:13;;;;;;;7.25;4.38;;;2.80;99.90;;;;;;5105987;28;20035;-67
2022/02/11 07:21:40;;;;;;;5.63;3.95;;;2.80;99.90;;;;;;5097563;28;20054;-68
2022/02/11 07:24:07;;;;;;;6.88;4.00;;;2.80;99.90;;;;;;5100368;28;20468;-67
2022/02/11 07:26:32;;;;;;;8.68;4.63;;;2.80;99.90;;;;;;5107867;28;20371;-67
2022/02/11 07:28:58;;;;;;;8.60;4.13;;;2.80;99.90;;;;;;5091279;28;20027;-67
2022/02/11 07:31:23;;;;;;;4.85;4.35;;;2.80;99.90;;;;;;5096355;28;20080;-67
2022/02/11 07:33:49;;;;;;;5.53;4.07;;;2.80;99.90;;;;;;5107569;28;20024;-67
2022/02/11 07:36:14;;;;;;;4.65;3.90;;;2.80;99.90;;;;;;5109181;28;20380;-68
2022/02/11 07:38:40;;;;;;;6.97;3.80;;;2.90;99.90;;;;;;5108634;28;20032;-69
2022/02/11 07:41:06;;;;;;;9.45;4.63;;;2.90;99.90;;;;;;5089618;28;20026;-69
2022/02/11 07:43:32;;;;;;;5.45;3.50;;;2.90;99.90;;;;;;5107699;28;20028;-69
2022/02/11 07:45:57;;;;;;;3.90;3.50;;;3.00;99.90;;;;;;5105823;28;20046;-68
2022/02/11 07:48:23;;;;;;;4.03;3.33;;;3.00;99.90;;;;;;5107189;28;20047;-69
2022/02/11 07:50:51;;;;;;;5.85;3.17;;;3.40;99.90;;;;;;5095927;28;20020;-68
2022/02/11 07:53:18;;;;;;;6.30;3.30;;;3.40;99.90;;;;;;5087790;28;20380;-68
2022/02/11 07:55:44;;;;;;;5.05;2.95;;;3.60;99.90;;;;;;5098425;28;20012;-68
2022/02/11 07:58:09;;;;;;;5.35;2.83;;;3.60;99.90;;;;;;5096632;28;20059;-68
2022/02/11 08:00:35;;;;;;;3.47;2.92;;;4.00;99.90;;;;;;5107363;28;20098;-69
2022/02/11 08:03:01;;;;;;;3.78;3.03;;;4.40;99.90;;;;;;5106272;28;20122;-70
2022/02/11 08:05:26;;;;;;;3.78;2.47;;;4.50;99.90;;;;;;5109939;28;20030;-72
2022/02/11 08:07:52;;;;;;;6.88;2.83;;;4.60;99.90;;;;;;5100759;28;20477;-69
2022/02/11 08:10:18;;;;;;;3.97;2.80;;;4.50;99.90;;;;;;5104917;28;20021;-69
2022/02/11 08:12:43;;;;;;;2.67;2.47;;;4.40;99.90;;;;;;5099109;28;20476;-69
2022/02/11 08:15:09;;;;;;;3.58;2.95;;;4.30;99.90;;;;;;5109791;28;20074;-71
2022/02/11 08:17:35;;;;;;;5.32;3.20;;;4.10;99.90;;;;;;5109184;28;20051;-72
2022/02/11 08:20:00;;;;;;;6.15;3.05;;;4.00;99.90;;;;;;5105701;28;20110;-69
2022/02/11 08:22:26;;;;;;;10.68;3.30;;;3.90;99.90;;;;;;5098008;28;20380;-69
2022/02/11 08:24:52;;;;;;;5.15;2.97;;;3.80;99.90;;;;;;5104836;28;20036;-70
2022/02/11 08:27:17;;;;;;;6.55;3.72;;;3.70;99.90;;;;;;5103924;28;20499;-69
2022/02/11 08:29:44;;;;;;;6.80;2.95;;;3.60;99.90;;;;;;5106983;28;20032;-72
2022/02/11 08:32:10;;;;;;;7.00;3.40;;;3.60;99.90;;;;;;5099558;28;20024;-69
2022/02/11 08:34:36;;;;;;;6.10;3.42;;;3.50;99.90;;;;;;5111177;28;20498;-70
2022/02/11 08:37:02;;;;;;;4.38;2.67;;;3.50;99.90;;;;;;5107716;28;20099;-70
2022/02/11 08:39:27;;;;;;;6.75;2.88;;;3.50;99.90;;;;;;5085893;28;20085;-70
2022/02/11 08:41:53;;;;;;;6.60;2.88;;;3.40;99.90;;;;;;5093567;28;20399;-68
2022/02/11 08:44:19;;;;;;;3.88;2.80;;;3.50;99.90;;;;;;5096638;28;20028;-69
2022/02/11 08:46:45;;;;;;;7.93;2.92;;;3.50;99.90;;;;;;5107937;28;20031;-70
2022/02/11 08:49:11;;;;;;;7.95;2.97;;;3.60;99.90;;;;;;5097459;28;20020;-69
2022/02/11 08:51:37;;;;;;;4.53;2.60;;;3.70;99.90;;;;;;5098855;28;20019;-69
2022/02/11 08:54:04;;;;;;;4.88;2.55;;;3.90;99.90;;;;;;5100703;28;20069;-70
2022/02/11 08:56:30;;;;;;;4.95;2.40;;;3.90;99.90;;;;;;5105802;28;20051;-68
2022/02/11 08:58:56;;;;;;;5.22;2.45;;;4.00;99.90;;;;;;5100205;28;20027;-70
2022/02/11 09:01:22;;;;;;;4.88;2.83;;;4.10;99.90;;;;;;5085796;28;20085;-69
2022/02/11 09:03:48;;;;;;;4.82;2.42;;;4.20;99.90;;;;;;5083007;28;20046;-69
2022/02/11 09:06:14;;;;;;;6.05;2.40;;;4.30;99.90;;;;;;5080707;28;20110;-69
2022/02/11 09:08:40;;;;;;;8.05;2.50;;;4.40;99.90;;;;;;5077310;28;20020;-69
2022/02/11 09:11:12;;;;;;;5.05;2.00;;;4.50;99.90;;;;;;5102358;28;20081;-69
2022/02/11 09:13:38;;;;;;;3.00;1.80;;;4.50;99.90;;;;;;5104367;28;20027;-69
2022/02/11 09:16:04;;;;;;;6.40;2.38;;;4.50;99.90;;;;;;5107626;28;20520;-69
2022/02/11 09:18:30;;;;;;;3.28;2.33;;;4.50;99.90;;;;;;5110601;28;20051;-69
2022/02/11 09:20:57;;;;;;;3.83;2.25;;;4.50;99.90;;;;;;5092199;28;20383;-69
2022/02/11 09:23:24;;;;;;;7.90;2.53;;;4.50;99.90;;;;;;5103283;28;20015;-69
2022/02/11 09:25:51;;;;;;;3.85;2.08;;;4.50;99.90;;;;;;5106761;28;20050;-69
2022/02/11 09:28:17;;;;;;;7.78;2.80;;;4.50;99.90;;;;;;5089364;28;20506;-70
2022/02/11 09:30:43;;;;;;;7.38;2.25;;;4.50;99.90;;;;;;5110935;28;20059;-71
2022/02/11 09:33:09;;;;;;;3.25;2.20;;;4.60;99.90;;;;;;5104970;28;20024;-69
2022/02/11 09:35:35;;;;;;;4.70;2.55;;;4.60;99.90;;;;;;5093449;28;20026;-70
2022/02/11 09:38:00;;;;;;;4.80;2.17;;;4.70;99.90;;;;;;5105266;28;20030;-69
2022/02/11 09:40:26;;;;;;;5.35;2.30;;;4.70;99.90;;;;;;5111472;28;20032;-69
2022/02/11 09:42:54;;;;;;;4.65;2.28;;;4.80;99.90;;;;;;5103445;28;20028;-69
2022/02/11 09:45:21;;;;;;;9.73;2.97;;;4.80;99.90;;;;;;5101810;28;20020;-69
2022/02/11 09:47:49;;;;;;;4.97;2.40;;;4.70;99.90;;;;;;5109329;28;20030;-69
2022/02/11 09:50:15;;;;;;;7.55;2.45;;;4.70;99.90;;;;;;5092289;28;20024;-69
2022/02/11 09:52:48;;;;;;;6.78;2.30;;;4.70;99.90;;;;;;5105625;28;20085;-69
2022/02/11 09:58:01;;;;;;;5.90;2.22;;;4.70;99.90;;;;;;5095731;28;20627;-70
2022/02/11 10:00:28;;;;;;;8.05;2.65;;;4.70;99.90;;;;;;5092831;28;20023;-70
2022/02/11 10:02:59;;;;;;;6.10;2.60;;;4.60;99.90;;;;;;5082721;28;20107;-72
2022/02/11 10:05:30;;;;;;;5.13;2.38;;;4.60;99.90;;;;;;5104725;28;20721;-70
2022/02/11 10:07:57;;;;;;;3.90;2.50;;;4.60;99.90;;;;;;5107768;28;20042;-71
2022/02/11 10:10:38;;;;;;;8.45;2.50;;;4.50;99.90;;;;;;5104367;28;20027;-70
2022/02/11 10:13:13;;;;;;;5.60;2.47;;;4.40;99.90;;;;;;5098933;28;20464;-71
2022/02/11 10:15:45;;;;;;;3.63;1.90;;;4.40;99.90;;;;;;5103948;28;20034;-71
2022/02/11 10:18:12;;;;;;;6.50;2.15;;;4.40;99.90;;;;;;5109692;28;20491;-70
2022/02/11 10:20:42;;;;;;;5.32;2.30;;;4.40;99.90;;;;;;5111092;28;20039;-70
2022/02/11 10:23:15;;;;;;;6.53;2.22;;;4.30;99.90;;;;;;5106087;28;20024;-70
2022/02/11 10:25:54;;;;;;;8.82;2.30;;;4.40;99.90;;;;;;5093381;28;20020;-71
2022/02/11 10:28:41;;;;;;;5.75;2.20;;;4.30;99.90;;;;;;5097827;28;20020;-71
2022/02/11 10:31:27;;;;;;;4.25;2.22;;;4.30;99.90;;;;;;5099280;28;20032;-71
2022/02/11 10:34:06;;;;;;;5.38;2.15;;;4.40;99.90;;;;;;5087135;28;20047;-70
2022/02/11 10:36:41;;;;;;;5.40;2.25;;;4.40;99.90;;;;;;5081663;28;20023;-70
2022/02/11 10:39:17;;;;;;;8.25;2.83;;;4.40;99.90;;;;;;5100012;28;20122;-71
2022/02/11 10:41:44;;;;;;;8.50;2.40;;;4.40;99.90;;;;;;5098440;28;20503;-69
2022/02/11 10:44:14;;;;;;;5.35;2.20;;;4.40;99.90;;;;;;5108013;28;20806;-70
2022/02/11 10:46:49;;;;;;;5.47;2.20;;;4.40;99.90;;;;;;5098817;28;20448;-71
2022/02/11 10:49:15;;;;;;;4.22;2.00;;;4.50;99.90;;;;;;5097668;28;20527;-71
2022/02/11 10:51:49;;;;;;;7.32;2.42;;;4.40;99.90;;;;;;5108064;28;20027;-71
2022/02/11 10:54:27;;;;;;;6.65;2.70;;;4.40;99.90;;;;;;5108061;28;20085;-70
2022/02/11 10:56:55;;;;;;;5.03;2.40;;;4.40;99.90;;;;;;5093573;28;20024;-70
2022/02/11 10:59:28;;;;;;;4.00;2.53;;;4.30;99.90;;;;;;5107608;28;20449;-70
2022/02/11 11:01:56;;;;;;;8.95;2.28;;;4.40;99.90;;;;;;5082409;28;20024;-70
2022/02/11 11:04:22;;;;;;;3.97;2.15;;;4.40;99.90;;;;;;5088718;28;20379;-70
2022/02/11 11:06:49;;;;;;;5.05;3.67;;;4.40;99.90;;;;;;5086992;28;20032;-69
2022/02/11 11:09:16;;;;;;;6.50;2.72;;;4.50;99.90;;;;;;5102422;28;20057;-69
2022/02/11 11:11:44;;;;;;;2.65;2.10;;;4.50;99.90;;;;;;5105348;28;20511;-70
2022/02/11 11:14:16;;;;;;;4.55;2.40;;;4.40;99.90;;;;;;5100215;28;20107;-70
2022/02/11 11:16:44;;;;;;;7.97;2.03;;;4.40;99.90;;;;;;5101579;28;20023;-70
2022/02/11 11:19:10;;;;;;;3.42;1.70;;;4.50;99.90;;;;;;5106499;22;20050;-68
2022/02/11 11:21:44;;;;;;;6.10;2.08;;;4.40;99.90;;;;;;5103293;28;20073;-69
2022/02/11 11:24:11;;;;;;;7.45;2.33;;;4.40;99.90;;;;;;5105614;28;20098;-69
2022/02/11 11:26:39;;;;;;;5.82;2.40;;;4.50;99.90;;;;;;5108754;28;20645;-68
2022/02/11 11:29:10;;;;;;;4.03;1.58;;;4.40;99.90;;;;;;5096527;28;20036;-68
2022/02/11 11:31:36;;;;;;;6.68;1.98;;;4.50;99.90;;;;;;5086472;28;20020;-68
2022/02/11 11:34:14;;;;;;;5.45;1.85;;;4.50;99.90;;;;;;5088889;28;20024;-68
2022/02/11 11:36:42;;;;;;;7.47;2.25;;;4.50;99.90;;;;;;5079865;28;20025;-68
2022/02/11 11:39:07;;;;;;;8.65;1.85;;;4.50;99.90;;;;;;5088418;28;20039;-67
2022/02/11 11:41:35;;;;;;;4.03;1.90;;;4.50;99.90;;;;;;5089304;28;20024;-68
2022/02/11 11:44:18;;;;;;;4.03;1.80;;;4.50;99.90;;;;;;5089265;28;20495;-70
2022/02/11 11:46:52;;;;;;;5.13;2.08;;;4.50;99.90;;;;;;5088510;28;20038;-67
2022/02/11 11:49:26;;;;;;;6.75;1.83;;;4.40;99.90;;;;;;5099161;28;20542;-67
2022/02/11 11:51:54;;;;;;;5.82;2.13;;;4.40;99.90;;;;;;5101640;28;20445;-68
2022/02/11 11:54:23;;;;;;;6.82;1.92;;;4.40;99.90;;;;;;5082376;28;20032;-68
2022/02/11 11:57:02;;;;;;;4.07;2.00;;;4.40;99.90;;;;;;5095417;28;20023;-66
2022/02/11 11:59:47;;;;;;;8.75;2.35;;;4.40;99.90;;;;;;5086002;28;20021;-67
2022/02/11 12:02:24;;;;;;;5.90;2.20;;;4.50;99.90;;;;;;5091896;28;20085;-68
2022/02/11 12:04:52;;;;;;;4.95;2.17;;;4.50;99.90;;;;;;5075205;28;20077;-67
2022/02/11 12:07:20;;;;;;;9.00;2.10;;;4.50;99.90;;;;;;5083259;28;20047;-69
2022/02/11 12:09:49;;;;;;;6.88;2.55;;;4.50;99.90;;;;;;5091943;28;20028;-67
2022/02/11 12:12:26;;;;;;;4.18;1.88;;;4.50;99.90;;;;;;5086619;28;20020;-68
2022/02/11 12:14:54;;;;;;;11.05;2.25;;;4.50;99.90;;;;;;5069170;28;20490;-68
2022/02/11 12:17:21;;;;;;;5.30;2.15;;;4.60;99.90;;;;;;5084147;28;20063;-69
2022/02/11 12:19:47;;;;;;;5.22;2.00;;;4.60;99.90;;;;;;5097422;28;20492;-67
2022/02/11 12:22:15;;;;;;;3.35;1.90;;;4.70;99.90;;;;;;5091613;28;20034;-69
2022/02/11 12:27:37;;;;;;;4.05;2.10;;;4.90;99.90;;;;;;5091347;28;20399;-67
2022/02/11 12:30:07;;;;;;;4.35;1.90;;;5.10;99.90;;;;;;5092593;28;20032;-68
2022/02/11 12:32:46;;;;;;;5.35;2.30;;;5.30;99.90;;;;;;5072161;28;20032;-68
2022/02/11 12:35:17;;;;;;;5.43;1.98;;;5.40;99.90;;;;;;5092539;28;20020;-68
2022/02/11 12:37:46;;;;;;;38.40;21.92;;;5.50;99.90;;;;;;5090973;28;20036;-68
2022/02/11 12:40:13;;;;;;;5.53;2.28;;;5.60;99.90;;;;;;5101073;28;20081;-67
2022/02/11 12:42:42;;;;;;;4.55;2.00;;;5.70;99.90;;;;;;5109671;28;20532;-68
2022/02/11 12:45:13;;;;;;;3.83;2.10;;;5.70;99.90;;;;;;5099402;28;20032;-68
2022/02/11 12:47:40;;;;;;;6.93;2.03;;;5.90;99.90;;;;;;5097891;28;20062;-69
2022/02/11 12:50:10;;;;;;;8.77;2.20;;;6.00;99.90;;;;;;5088439;28;20364;-68
2022/02/11 12:52:37;;;;;;;7.70;2.63;;;6.00;99.90;;;;;;5092370;28;20066;-68
2022/02/11 12:55:22;;;;;;;4.65;2.08;;;6.10;99.90;;;;;;5085275;28;20066;-69
2022/02/11 12:57:58;;;;;;;4.32;2.03;;;6.10;99.90;;;;;;5095420;28;20024;-68
2022/02/11 13:00:28;;;;;;;5.03;1.88;;;6.20;99.90;;;;;;5088132;28;20016;-67
2022/02/11 13:02:58;;;;;;;5.20;2.42;;;6.30;99.90;;;;;;5090151;28;20028;-68
2022/02/11 13:05:28;;;;;;;4.78;1.95;;;6.20;99.90;;;;;;5091380;28;20585;-68
2022/02/11 13:07:56;;;;;;;3.58;1.60;;;6.20;99.90;;;;;;5090988;28;20028;-69
2022/02/11 13:10:27;;;;;;;5.53;2.10;;;6.20;99.90;;;;;;5088022;28;20123;-67
2022/02/11 13:12:58;;;;;;;4.45;1.70;;;6.30;99.90;;;;;;5071904;28;20062;-67
2022/02/11 13:15:34;;;;;;;8.07;1.70;;;6.50;99.90;;;;;;5090205;28;20024;-67
2022/02/11 13:18:10;;;;;;;7.85;2.28;;;6.70;99.90;;;;;;5090702;28;20024;-68
2022/02/11 13:20:41;;;;;;;40.22;13.02;;;6.90;99.90;;;;;;5085503;28;20028;-70
2022/02/11 13:23:09;;;;;;;5.40;2.10;;;7.10;99.90;;;;;;5091635;28;20020;-68
2022/02/11 13:25:36;;;;;;;2.83;1.67;;;7.20;99.90;;;;;;5065532;28;20024;-71
2022/02/11 13:28:21;;;;;;;4.10;1.60;;;7.40;99.90;;;;;;5103333;28;20078;-67
2022/02/11 13:30:58;;;;;;;4.40;1.52;;;7.30;99.90;;;;;;5072216;28;20028;-71
2022/02/11 13:33:33;;;;;;;3.95;1.60;;;7.10;99.90;;;;;;5090778;28;20468;-67
2022/02/11 13:36:01;;;;;;;4.45;1.50;;;7.00;99.90;;;;;;5086600;28;20032;-68
2022/02/11 13:38:28;;;;;;;3.65;1.50;;;6.80;99.90;;;;;;5081309;28;20027;-68
2022/02/11 13:41:09;;;;;;;4.70;1.40;;;6.70;99.90;;;;;;5093107;28;20040;-68
2022/02/11 13:43:54;;;;;;;4.18;1.73;;;6.60;99.90;;;;;;5070206;28;20078;-67
2022/02/11 13:46:34;;;;;;;3.53;1.80;;;6.40;99.90;;;;;;5077965;28;20020;-69
2022/02/11 13:49:11;;;;;;;4.63;1.88;;;6.30;99.90;;;;;;5072632;28;20052;-70
2022/02/11 13:51:41;;;;;;;2.80;1.50;;;6.20;99.90;;;;;;5082128;28;20043;-68
2022/02/11 13:54:13;;;;;;;4.88;1.60;;;6.00;99.90;;;;;;5082882;28;20020;-67
2022/02/11 13:56:39;;;;;;;2.40;1.67;;;5.90;99.90;;;;;;5064484;28;20428;-69
2022/02/11 13:59:06;;;;;;;4.18;1.83;;;5.90;99.90;;;;;;5105592;28;20024;-69
2022/02/11 14:01:33;;;;;;;6.80;2.00;;;5.80;99.90;;;;;;5087863;28;20020;-70
2022/02/11 14:04:06;;;;;;;1.92;1.27;;;5.70;99.90;;;;;;5089805;28;20032;-69
2022/02/11 14:06:36;;;;;;;1.75;1.25;;;5.60;99.90;;;;;;5086908;28;20039;-70
2022/02/11 14:09:40;;;;;;;2.40;1.30;;;5.40;99.90;;;;;;5092573;28;20069;-68
2022/02/11 14:12:07;;;;;;;1.73;1.42;;;5.00;99.90;;;;;;5086567;28;20345;-69
2022/02/11 14:14:34;;;;;;;2.88;1.40;;;4.70;99.90;;;;;;5087840;28;20085;-69
2022/02/11 14:17:00;;;;;;;1.92;1.40;;;4.40;99.90;;;;;;5089665;28;20016;-68
2022/02/11 14:19:27;;;;;;;4.53;1.45;;;4.30;99.90;;;;;;5088578;28;20089;-68
2022/02/11 14:22:00;;;;;;;6.07;1.30;;;4.10;99.90;;;;;;5096972;28;20028;-69
2022/02/11 14:24:28;;;;;;;6.65;3.25;;;4.10;99.90;;;;;;5089737;28;20388;-68
2022/02/11 14:26:54;;;;;;;1.85;1.20;;;4.00;99.90;;;;;;5094692;28;20024;-69
2022/02/11 14:29:21;;;;;;;2.30;0.90;;;3.90;99.90;;;;;;5083253;28;20024;-69
2022/02/11 14:31:47;;;;;;;1.27;0.88;;;3.90;99.90;;;;;;5089995;28;20032;-68
2022/02/11 14:34:14;;;;;;;3.00;1.10;;;3.90;99.90;;;;;;5086728;28;20380;-70
2022/02/11 14:36:42;;;;;;;5.32;1.33;;;3.90;99.90;;;;;;5089414;28;20020;-69
2022/02/11 14:39:16;;;;;;;2.33;0.85;;;4.00;99.90;;;;;;5084322;28;20093;-69
2022/02/11 14:41:47;;;;;;;3.03;1.15;;;4.30;99.90;;;;;;5090169;28;20035;-69
2022/02/11 14:44:19;;;;;;;0.80;0.80;;;4.70;99.90;;;;;;5088142;28;20059;-69
2022/02/11 14:46:46;;;;;;;2.47;1.08;;;5.10;99.90;;;;;;5089143;28;20059;-68
2022/02/11 14:49:13;;;;;;;2.63;1.10;;;5.40;99.90;;;;;;5088049;28;20077;-69
2022/02/11 14:51:39;;;;;;;3.42;1.13;;;5.70;99.90;;;;;;5093022;28;20081;-69
2022/02/11 14:54:10;;;;;;;4.50;1.40;;;5.80;99.90;;;;;;5090102;28;20123;-69
2022/02/11 14:56:37;;;;;;;2.15;1.30;;;5.80;99.90;;;;;;5089965;28;20019;-69
2022/02/11 14:59:02;;;;;;;3.22;1.05;;;5.70;99.90;;;;;;5079490;28;20039;-69
2022/02/11 15:01:28;;;;;;;3.65;1.00;;;5.60;99.90;;;;;;5082145;28;20020;-69
2022/02/11 15:03:54;;;;;;;1.33;1.23;;;5.50;99.90;;;;;;5094004;28;20399;-68
2022/02/11 15:06:20;;;;;;;34.15;13.82;;;5.50;99.90;;;;;;5097089;28;20141;-69
2022/02/11 15:08:47;;;;;;;77.38;29.30;;;5.40;99.90;;;;;;5088190;28;20107;-69
2022/02/11 15:11:13;;;;;;;35.92;12.93;;;5.30;99.90;;;;;;5086143;28;20153;-69
2022/02/11 15:13:39;;;;;;;14.00;6.53;;;5.20;99.90;;;;;;5089641;28;20047;-69
2022/02/11 15:16:05;;;;;;;3.75;2.80;;;5.10;99.90;;;;;;5088425;28;20464;-69
2022/02/11 15:18:31;;;;;;;3.80;2.25;;;5.10;99.90;;;;;;5089642;28;20099;-69
2022/02/11 15:21:00;;;;;;;3.28;2.00;;;5.10;99.90;;;;;;5087248;28;20165;-69
2022/02/11 15:23:26;;;;;;;5.45;3.35;;;5.00;99.90;;;;;;5089606;28;20061;-69
2022/02/11 15:25:53;;;;;;;3.08;2.20;;;5.00;99.90;;;;;;5096100;28;20082;-69
2022/02/11 15:28:18;;;;;;;7.60;2.40;;;4.90;99.90;;;;;;5088087;28;20487;-70
2022/02/11 15:30:44;;;;;;;4.25;2.83;;;4.80;99.90;;;;;;5110291;28;20035;-69
2022/02/11 15:33:09;;;;;;;4.90;2.47;;;4.80;99.90;;;;;;5090180;28;20016;-68
2022/02/11 15:35:35;;;;;;;6.60;2.05;;;4.70;99.90;;;;;;5094342;28;20020;-69
2022/02/11 15:38:01;;;;;;;5.47;2.58;;;4.70;99.90;;;;;;5093601;28;20020;-70
2022/02/11 15:40:27;;;;;;;9.10;2.80;;;4.60;99.90;;;;;;5092468;28;20031;-70
2022/02/11 15:42:54;;;;;;;6.28;2.00;;;4.60;99.90;;;;;;5091708;28;20112;-70
2022/02/11 15:45:20;;;;;;;3.50;2.00;;;4.50;99.90;;;;;;5090754;28;20024;-69
2022/02/11 15:47:46;;;;;;;2.88;1.92;;;4.50;99.90;;;;;;5093564;28;20034;-69
2022/02/11 15:50:11;;;;;;;4.28;2.05;;;4.30;99.90;;;;;;5092073;28;20036;-69
2022/02/11 15:52:37;;;;;;;4.15;2.20;;;4.30;99.90;;;;;;5093605;28;20095;-70
2022/02/11 15:55:03;;;;;;;4.63;1.52;;;4.20;99.90;;;;;;5087813;28;20081;-70
2022/02/11 15:57:29;;;;;;;4.93;1.88;;;4.10;99.90;;;;;;5069320;28;20028;-69
2022/02/11 15:59:54;;;;;;;14.95;8.20;;;4.00;99.90;;;;;;5074101;28;20028;-68
2022/02/11 16:02:21;;;;;;;2.35;1.63;;;3.90;99.90;;;;;;5096253;28;20073;-69
2022/02/11 16:04:47;;;;;;;4.80;2.10;;;3.80;99.90;;;;;;5090789;28;20024;-68
2022/02/11 16:07:12;;;;;;;3.63;1.80;;;3.80;99.90;;;;;;5096086;28;20039;-68
2022/02/11 16:09:38;;;;;;;2.67;1.77;;;3.70;99.90;;;;;;5087036;28;20034;-68
2022/02/11 16:12:05;;;;;;;4.80;1.95;;;3.70;99.90;;;;;;5086439;28;20073;-70
2022/02/11 16:14:32;;;;;;;2.85;1.90;;;3.60;99.90;;;;;;5089459;28;20016;-67
2022/02/11 16:17:00;;;;;;;4.53;2.20;;;3.60;99.90;;;;;;5089177;28;20028;-70
2022/02/11 16:19:28;;;;;;;3.58;1.75;;;3.50;99.90;;;;;;5091534;28;20031;-70
2022/02/11 16:21:54;;;;;;;8.05;2.60;;;3.50;99.90;;;;;;5092499;28;20030;-70
2022/02/11 16:24:20;;;;;;;3.00;2.17;;;3.50;99.90;;;;;;5093659;28;20028;-70
2022/02/11 16:26:46;;;;;;;6.22;2.38;;;3.50;99.90;;;;;;5092723;28;20028;-69
2022/02/11 16:29:11;;;;;;;5.82;2.58;;;3.50;99.90;;;;;;5089209;28;20036;-69
2022/02/11 16:31:37;;;;;;;4.97;2.75;;;3.40;99.90;;;;;;5091605;28;20024;-70
2022/02/11 16:34:03;;;;;;;3.55;2.58;;;3.40;99.90;;;;;;5091672;28;20468;-69
2022/02/11 16:36:29;;;;;;;6.57;3.33;;;3.40;99.90;;;;;;5091684;28;20020;-69
2022/02/11 16:38:55;;;;;;;5.03;3.20;;;3.30;99.90;;;;;;5081369;28;20032;-69
2022/02/11 16:41:24;;;;;;;3.13;2.83;;;3.30;99.90;;;;;;5089403;28;20020;-68
2022/02/11 16:43:50;;;;;;;7.00;3.30;;;3.20;99.90;;;;;;5092266;28;20392;-68
2022/02/11 16:46:16;;;;;;;8.68;3.35;;;3.20;99.90;;;;;;5082374;28;20024;-67
2022/02/11 16:48:42;;;;;;;10.57;3.88;;;3.20;99.90;;;;;;5083748;28;20058;-68
2022/02/11 16:51:07;;;;;;;15.90;5.85;;;3.10;99.90;;;;;;5089760;28;20024;-68
2022/02/11 16:53:33;;;;;;;7.78;3.15;;;3.10;99.90;;;;;;5091927;28;20032;-67
2022/02/11 16:55:59;;;;;;;4.15;2.83;;;3.10;99.90;;;;;;5074667;28;20082;-69
2022/02/11 16:58:25;;;;;;;7.15;2.63;;;3.10;99.90;;;;;;5085733;28;20028;-68